Time;durP1;ratioP1;P1;durP2;ratioP2;P2;SDS_P1;SDS_P2;PMS_P1;PMS_P2;Temp;Humidity;BMP_temperature;BMP_pressure;BME280_temperature;BME280_humidity;BME280_pressure;Samples;Min_cycle;Max_cycle;Signal;HPM_P1;HPM_P2
2023/08/28 00:02:19;;;;;;;6.20;3.75;;;12.70;99.90;;;;;;5063148;28;20060;-34
2023/08/28 00:04:44;;;;;;;5.43;3.28;;;12.70;99.90;;;;;;5061616;28;20098;-34
2023/08/28 00:07:10;;;;;;;6.03;3.50;;;12.70;99.90;;;;;;5047216;28;20057;-34
2023/08/28 00:09:36;;;;;;;5.13;3.97;;;12.60;99.90;;;;;;5065663;28;20510;-35
2023/08/28 00:12:02;;;;;;;6.28;3.80;;;12.60;99.90;;;;;;5069812;28;20498;-34
2023/08/28 00:14:28;;;;;;;7.82;4.18;;;12.60;99.90;;;;;;5065050;28;20555;-34
2023/08/28 00:16:54;;;;;;;5.75;3.70;;;12.60;99.90;;;;;;5069587;28;20048;-34
2023/08/28 00:19:20;;;;;;;8.15;4.15;;;12.60;99.90;;;;;;5065207;28;20406;-34
2023/08/28 00:21:46;;;;;;;6.47;4.13;;;12.60;99.90;;;;;;5062691;28;20059;-34
2023/08/28 00:24:11;;;;;;;5.40;3.90;;;12.50;99.90;;;;;;5051076;28;20041;-34
2023/08/28 00:26:37;;;;;;;5.63;3.70;;;12.50;99.90;;;;;;5053800;28;20135;-35
2023/08/28 00:29:03;;;;;;;6.68;3.63;;;12.50;99.90;;;;;;5064161;28;20048;-35
2023/08/28 00:31:28;;;;;;;5.25;4.03;;;12.50;99.90;;;;;;5054869;28;20052;-36
2023/08/28 00:33:54;;;;;;;5.85;4.00;;;12.50;99.90;;;;;;5065672;28;20486;-35
2023/08/28 00:36:20;;;;;;;5.60;3.75;;;12.50;99.90;;;;;;5064396;28;20418;-34
2023/08/28 00:38:45;;;;;;;4.63;3.33;;;12.50;99.90;;;;;;5061076;28;20133;-34
2023/08/28 00:41:11;;;;;;;5.00;3.50;;;12.50;99.90;;;;;;5052362;28;20057;-35
2023/08/28 00:43:37;;;;;;;5.32;3.60;;;12.50;99.90;;;;;;5045150;28;20060;-34
2023/08/28 00:46:03;;;;;;;5.13;3.67;;;12.50;99.90;;;;;;5061874;28;20072;-34
2023/08/28 00:48:29;;;;;;;4.70;2.90;;;12.50;99.90;;;;;;5062447;28;20048;-35
2023/08/28 00:50:56;;;;;;;5.18;3.22;;;12.50;99.90;;;;;;5061277;28;20452;-34
2023/08/28 00:53:23;;;;;;;5.10;3.50;;;12.50;99.90;;;;;;5050316;28;20552;-34
2023/08/28 00:55:49;;;;;;;5.28;3.63;;;12.50;99.90;;;;;;5039999;28;20099;-35
2023/08/28 00:58:15;;;;;;;6.50;3.72;;;12.50;99.90;;;;;;5058702;28;20464;-34
2023/08/28 01:00:41;;;;;;;5.53;3.78;;;12.50;99.90;;;;;;5066768;28;20090;-34
2023/08/28 01:03:07;;;;;;;4.90;3.20;;;12.50;99.90;;;;;;5051871;28;20534;-35
2023/08/28 01:05:46;;;;;;;5.25;3.05;;;12.50;99.90;;;;;;5051537;28;20067;-34
2023/08/28 01:08:18;;;;;;;6.25;4.15;;;12.50;99.90;;;;;;5058509;28;20585;-35
2023/08/28 01:10:54;;;;;;;5.32;2.67;;;12.40;99.90;;;;;;5056272;28;20048;-34
2023/08/28 01:13:36;;;;;;;7.88;4.20;;;12.40;99.90;;;;;;5066068;28;20067;-35
2023/08/28 01:16:04;;;;;;;8.13;4.80;;;12.40;99.90;;;;;;5057309;28;20463;-34
2023/08/28 01:18:31;;;;;;;6.35;4.32;;;12.30;99.90;;;;;;5055122;28;20538;-34
2023/08/28 01:20:58;;;;;;;5.63;3.72;;;12.30;99.90;;;;;;5068293;28;20058;-34
2023/08/28 01:23:31;;;;;;;4.65;3.40;;;12.30;99.90;;;;;;5064272;28;20055;-34
2023/08/28 01:25:59;;;;;;;7.35;4.15;;;12.30;99.90;;;;;;5064964;28;20516;-34
2023/08/28 01:28:25;;;;;;;7.53;4.60;;;12.20;99.90;;;;;;5056483;28;20095;-34
2023/08/28 01:30:53;;;;;;;5.95;4.32;;;12.20;99.90;;;;;;5061960;28;20086;-34
2023/08/28 01:33:19;;;;;;;10.50;4.80;;;12.20;99.90;;;;;;5063142;28;20493;-34
2023/08/28 01:35:53;;;;;;;7.35;4.80;;;12.10;99.90;;;;;;5048232;28;20048;-34
2023/08/28 01:38:21;;;;;;;8.05;5.00;;;12.10;99.90;;;;;;5061243;28;20107;-35
2023/08/28 01:41:19;;;;;;;8.27;4.97;;;12.10;99.90;;;;;;5060689;28;20071;-35
2023/08/28 01:43:48;;;;;;;11.25;5.38;;;12.00;99.90;;;;;;5060468;28;20071;-35
2023/08/28 01:46:15;;;;;;;7.22;5.30;;;11.90;99.90;;;;;;5063395;28;20055;-34
2023/08/28 01:48:47;;;;;;;8.40;5.55;;;11.90;99.90;;;;;;5041211;28;20080;-35
2023/08/28 01:51:12;;;;;;;7.88;5.22;;;11.90;99.90;;;;;;5052220;28;20049;-35
2023/08/28 01:53:38;;;;;;;8.82;5.25;;;11.90;99.90;;;;;;5053834;28;20109;-35
2023/08/28 01:56:07;;;;;;;8.32;5.43;;;11.90;99.90;;;;;;5063413;28;20114;-34
2023/08/28 01:58:34;;;;;;;6.85;4.80;;;12.00;99.90;;;;;;5058791;28;20060;-34
2023/08/28 02:01:00;;;;;;;8.48;5.35;;;11.90;99.90;;;;;;5059726;28;20067;-34
2023/08/28 02:03:27;;;;;;;7.57;5.07;;;11.90;99.90;;;;;;5042541;28;20057;-34
2023/08/28 02:05:53;;;;;;;9.07;5.47;;;11.90;99.90;;;;;;5043763;28;20052;-35
2023/08/28 02:08:19;;;;;;;7.13;5.10;;;11.90;99.90;;;;;;5061497;28;20422;-34
2023/08/28 02:10:44;;;;;;;8.43;4.97;;;12.00;99.90;;;;;;5067804;28;20174;-34
2023/08/28 02:13:10;;;;;;;7.57;4.75;;;12.00;99.90;;;;;;5060147;28;20045;-34
2023/08/28 02:15:36;;;;;;;8.00;4.80;;;12.10;99.90;;;;;;5065501;28;20141;-35
2023/08/28 02:18:01;;;;;;;8.35;4.47;;;12.10;99.90;;;;;;5062041;28;20494;-34
2023/08/28 02:20:27;;;;;;;9.15;4.90;;;12.20;99.90;;;;;;5066077;28;20057;-34
2023/08/28 02:22:53;;;;;;;5.65;3.88;;;12.20;99.90;;;;;;5058202;28;20052;-34
2023/08/28 02:25:20;;;;;;;7.38;4.20;;;12.30;99.90;;;;;;5052876;28;20076;-35
2023/08/28 02:27:46;;;;;;;7.53;4.10;;;12.30;99.90;;;;;;5038048;28;20122;-34
2023/08/28 02:30:12;;;;;;;7.55;4.05;;;12.40;99.90;;;;;;5064352;28;20477;-34
2023/08/28 02:32:37;;;;;;;5.35;3.78;;;12.40;99.90;;;;;;5062477;28;20075;-35
2023/08/28 02:35:04;;;;;;;6.65;4.10;;;12.50;99.90;;;;;;5046742;28;20121;-34
2023/08/28 02:37:29;;;;;;;8.18;5.15;;;12.60;99.90;;;;;;5061550;28;20087;-38
2023/08/28 02:39:55;;;;;;;6.97;4.65;;;12.70;99.90;;;;;;5063371;28;20145;-34
2023/08/28 02:42:21;;;;;;;6.30;3.97;;;12.80;99.90;;;;;;5064888;28;20383;-34
2023/08/28 02:44:46;;;;;;;6.30;4.65;;;12.80;99.90;;;;;;5059416;28;20145;-34
2023/08/28 02:47:12;;;;;;;6.65;4.22;;;12.80;99.90;;;;;;5056659;28;20047;-34
2023/08/28 02:49:37;;;;;;;6.63;4.10;;;12.90;99.90;;;;;;5062349;28;20071;-34
2023/08/28 02:52:03;;;;;;;5.85;4.07;;;12.90;99.90;;;;;;5067372;28;20060;-34
2023/08/28 02:54:29;;;;;;;6.93;3.70;;;12.90;99.90;;;;;;5064494;28;20155;-34
2023/08/28 02:56:57;;;;;;;5.28;3.55;;;12.90;99.90;;;;;;5065783;28;20052;-35
2023/08/28 02:59:23;;;;;;;5.63;3.55;;;12.90;99.90;;;;;;5060868;28;20084;-34
2023/08/28 03:01:48;;;;;;;6.07;3.67;;;12.90;99.90;;;;;;5057114;28;20136;-35
2023/08/28 03:04:14;;;;;;;7.32;3.85;;;12.90;99.90;;;;;;5059166;28;20072;-35
2023/08/28 03:06:40;;;;;;;5.18;3.40;;;12.90;99.90;;;;;;5058018;28;20056;-35
2023/08/28 03:09:14;;;;;;;6.70;4.00;;;12.90;99.90;;;;;;5059478;28;20131;-34
2023/08/28 03:11:40;;;;;;;5.55;3.47;;;12.90;99.90;;;;;;5055146;28;20048;-35
2023/08/28 03:14:06;;;;;;;6.78;3.88;;;12.80;99.90;;;;;;5059194;28;21389;-35
2023/08/28 03:16:31;;;;;;;6.32;4.30;;;12.90;99.90;;;;;;5072288;28;20052;-35
2023/08/28 03:18:57;;;;;;;5.80;3.85;;;12.90;99.90;;;;;;5059015;28;20063;-34
2023/08/28 03:21:23;;;;;;;6.65;3.45;;;12.90;99.90;;;;;;5057010;28;20053;-34
2023/08/28 03:23:49;;;;;;;6.63;4.50;;;12.90;99.90;;;;;;5058007;28;20052;-35
2023/08/28 03:26:14;;;;;;;6.60;4.13;;;12.90;99.90;;;;;;5058853;28;20059;-34
2023/08/28 03:28:40;;;;;;;4.95;3.42;;;12.80;99.90;;;;;;5061582;28;20498;-34
2023/08/28 03:31:06;;;;;;;5.13;3.30;;;12.80;99.90;;;;;;5061803;28;20486;-34
2023/08/28 03:33:31;;;;;;;4.80;2.92;;;12.80;99.90;;;;;;5057881;28;20052;-34
2023/08/28 03:35:59;;;;;;;4.03;2.95;;;12.80;99.90;;;;;;5062275;28;20052;-39
2023/08/28 03:38:24;;;;;;;4.80;3.00;;;12.80;99.90;;;;;;5063263;28;20064;-35
2023/08/28 03:40:51;;;;;;;11.90;3.45;;;12.80;99.90;;;;;;5064532;28;20398;-34
2023/08/28 03:43:16;;;;;;;5.75;3.90;;;12.80;99.90;;;;;;5066984;28;20083;-34
2023/08/28 03:45:42;;;;;;;5.65;3.60;;;12.70;99.90;;;;;;5067966;28;20056;-35
2023/08/28 03:48:08;;;;;;;9.02;3.38;;;12.70;99.90;;;;;;5062644;28;20063;-34
2023/08/28 03:50:33;;;;;;;6.30;3.45;;;12.60;99.90;;;;;;5064534;28;20064;-34
2023/08/28 03:53:00;;;;;;;5.30;2.92;;;12.60;99.90;;;;;;5064582;28;20048;-34
2023/08/28 03:55:27;;;;;;;4.95;3.38;;;12.60;99.90;;;;;;5070385;28;20529;-35
2023/08/28 03:57:54;;;;;;;5.10;2.85;;;12.60;99.90;;;;;;5067291;28;20517;-34
2023/08/28 04:00:20;;;;;;;4.85;3.17;;;12.50;99.90;;;;;;5068188;28;20502;-34
2023/08/28 04:02:46;;;;;;;6.60;4.28;;;12.50;99.90;;;;;;5065526;28;20482;-34
2023/08/28 04:05:13;;;;;;;5.88;3.33;;;12.50;99.90;;;;;;5067303;28;20056;-34
2023/08/28 04:07:40;;;;;;;6.00;3.67;;;12.40;99.90;;;;;;5065335;28;20290;-34
2023/08/28 04:10:06;;;;;;;7.75;3.10;;;12.40;99.90;;;;;;5063941;28;20055;-34
2023/08/28 04:12:33;;;;;;;5.53;3.22;;;12.40;99.90;;;;;;5054626;28;20080;-34
2023/08/28 04:14:58;;;;;;;5.78;3.80;;;12.40;99.90;;;;;;5046818;28;20075;-35
2023/08/28 04:17:25;;;;;;;6.38;3.58;;;12.30;99.90;;;;;;5079958;28;20135;-35
2023/08/28 04:19:51;;;;;;;9.57;3.35;;;12.30;99.90;;;;;;5062062;28;20710;-34
2023/08/28 04:22:19;;;;;;;6.93;3.25;;;12.30;99.90;;;;;;5073534;28;20052;-50
2023/08/28 04:24:48;;;;;;;6.47;3.75;;;12.20;99.90;;;;;;5066601;28;20040;-34
2023/08/28 04:27:13;;;;;;;6.95;4.13;;;12.20;99.90;;;;;;5063038;28;20053;-34
2023/08/28 04:29:40;;;;;;;5.80;4.03;;;12.10;99.90;;;;;;5061141;28;20055;-34
2023/08/28 04:32:06;;;;;;;6.13;4.00;;;12.10;99.90;;;;;;5066072;28;20490;-34
2023/08/28 04:34:32;;;;;;;8.43;4.80;;;12.10;99.90;;;;;;5062907;28;20194;-34
2023/08/28 04:36:57;;;;;;;8.55;4.63;;;12.00;99.90;;;;;;5042919;28;20062;-34
2023/08/28 04:39:23;;;;;;;6.28;4.28;;;12.00;99.90;;;;;;5046830;28;20044;-34
2023/08/28 04:41:50;;;;;;;9.98;5.00;;;11.90;99.90;;;;;;5060333;28;20086;-35
2023/08/28 04:44:15;;;;;;;9.18;5.03;;;11.90;99.90;;;;;;5066580;28;20516;-35
2023/08/28 04:46:41;;;;;;;8.77;5.75;;;11.80;99.90;;;;;;5066369;28;20048;-35
2023/08/28 04:49:07;;;;;;;8.02;4.53;;;11.80;99.90;;;;;;5070357;28;20068;-34
2023/08/28 04:51:32;;;;;;;9.77;5.32;;;11.80;99.90;;;;;;5061294;28;20041;-35
2023/08/28 04:53:58;;;;;;;7.50;4.88;;;11.70;99.90;;;;;;5071182;28;20456;-35
2023/08/28 04:56:24;;;;;;;9.30;4.78;;;11.70;99.90;;;;;;5066532;28;20056;-39
2023/08/28 04:58:49;;;;;;;9.02;5.45;;;11.70;99.90;;;;;;5062841;28;20101;-34
2023/08/28 05:01:15;;;;;;;7.53;4.72;;;11.70;99.90;;;;;;5067888;28;20514;-34
2023/08/28 05:03:41;;;;;;;6.40;4.82;;;11.70;99.90;;;;;;5067759;28;20048;-35
2023/08/28 05:06:06;;;;;;;6.95;5.15;;;11.70;99.90;;;;;;5069405;28;20048;-36
2023/08/28 05:08:32;;;;;;;6.45;4.95;;;11.70;99.90;;;;;;5064309;28;20061;-35
2023/08/28 05:11:00;;;;;;;6.38;4.47;;;11.70;99.90;;;;;;5067543;28;20471;-35
2023/08/28 05:13:25;;;;;;;8.82;4.65;;;11.70;99.90;;;;;;5070981;28;20052;-35
2023/08/28 05:15:51;;;;;;;5.90;4.20;;;11.70;99.90;;;;;;5062260;28;20459;-34
2023/08/28 05:18:17;;;;;;;6.05;3.80;;;11.80;99.90;;;;;;5065583;28;22609;-35
2023/08/28 05:20:42;;;;;;;6.63;4.80;;;11.80;99.90;;;;;;5068862;28;20084;-35
2023/08/28 05:23:08;;;;;;;6.53;3.60;;;11.90;99.90;;;;;;5065077;28;20458;-34
2023/08/28 05:25:34;;;;;;;4.90;3.50;;;11.90;99.90;;;;;;5059408;28;20395;-35
2023/08/28 05:28:00;;;;;;;7.03;4.43;;;11.90;99.90;;;;;;5064757;28;20125;-35
2023/08/28 05:30:26;;;;;;;8.50;5.35;;;11.90;99.90;;;;;;5061734;28;20505;-34
2023/08/28 05:32:51;;;;;;;6.90;4.40;;;12.00;99.90;;;;;;5072534;28;20049;-35
2023/08/28 05:35:17;;;;;;;6.63;4.65;;;12.00;99.90;;;;;;5054842;28;20059;-34
2023/08/28 05:37:43;;;;;;;9.40;4.72;;;12.00;99.90;;;;;;5064280;28;20090;-35
2023/08/28 05:40:09;;;;;;;6.43;4.50;;;12.00;99.90;;;;;;5050836;28;20087;-35
2023/08/28 05:42:35;;;;;;;7.18;4.47;;;12.10;99.90;;;;;;5064499;28;20052;-36
2023/08/28 05:45:00;;;;;;;6.75;4.53;;;12.10;99.90;;;;;;5054988;28;20305;-35
2023/08/28 05:47:26;;;;;;;6.43;4.45;;;12.20;99.90;;;;;;5062144;28;20071;-35
2023/08/28 05:49:51;;;;;;;7.95;4.68;;;12.20;99.90;;;;;;5059985;28;20429;-35
2023/08/28 05:52:17;;;;;;;8.93;4.70;;;12.30;99.90;;;;;;5067576;28;20049;-35
2023/08/28 05:54:43;;;;;;;6.55;4.82;;;12.40;99.90;;;;;;5060753;28;20053;-35
2023/08/28 05:57:08;;;;;;;6.72;4.63;;;12.40;99.90;;;;;;5066914;28;20563;-35
2023/08/28 05:59:34;;;;;;;6.85;3.92;;;12.50;99.90;;;;;;5066481;28;20107;-35
2023/08/28 06:02:00;;;;;;;7.80;3.90;;;12.60;99.90;;;;;;5039732;28;20468;-36
2023/08/28 06:04:26;;;;;;;8.27;5.18;;;12.60;99.90;;;;;;5061069;28;20059;-34
2023/08/28 06:06:51;;;;;;;8.13;5.22;;;12.70;99.90;;;;;;5065224;28;20410;-35
2023/08/28 06:09:17;;;;;;;7.32;4.43;;;12.80;99.90;;;;;;5052576;28;20410;-34
2023/08/28 06:11:43;;;;;;;7.13;5.20;;;12.90;99.90;;;;;;5060132;28;20044;-35
2023/08/28 06:14:09;;;;;;;8.45;4.85;;;12.90;99.90;;;;;;5058473;28;20114;-35
2023/08/28 06:16:34;;;;;;;7.60;4.80;;;12.90;99.90;;;;;;5053388;28;20056;-36
2023/08/28 06:19:00;;;;;;;9.13;5.78;;;13.00;99.90;;;;;;5056327;28;20831;-36
2023/08/28 06:21:26;;;;;;;8.23;4.97;;;13.00;99.90;;;;;;5058687;28;20056;-35
2023/08/28 06:23:52;;;;;;;11.02;5.30;;;13.00;99.90;;;;;;5057373;28;20063;-35
2023/08/28 06:26:17;;;;;;;7.25;5.15;;;13.10;99.90;;;;;;5066450;28;20095;-35
2023/08/28 06:28:43;;;;;;;7.22;4.72;;;13.10;99.90;;;;;;5055505;28;20071;-35
2023/08/28 06:31:09;;;;;;;7.82;4.40;;;13.20;99.90;;;;;;5058820;28;20155;-35
2023/08/28 06:33:34;;;;;;;7.72;4.93;;;13.30;99.90;;;;;;5063554;28;20094;-36
2023/08/28 06:36:00;;;;;;;7.07;3.83;;;13.30;99.90;;;;;;5063362;28;20052;-35
2023/08/28 06:38:26;;;;;;;3.60;2.05;;;13.40;99.90;;;;;;5044780;28;20088;-34
2023/08/28 06:40:52;;;;;;;4.95;2.83;;;13.50;99.90;;;;;;5043547;28;20148;-34
2023/08/28 06:43:18;;;;;;;3.38;2.13;;;13.70;99.90;;;;;;5050271;28;20053;-34
2023/08/28 06:45:45;;;;;;;3.78;2.22;;;13.90;99.90;;;;;;5046674;28;20497;-34
2023/08/28 06:48:11;;;;;;;4.47;3.03;;;14.00;99.90;;;;;;5063682;28;20060;-34
2023/08/28 06:50:37;;;;;;;7.03;3.58;;;14.20;99.90;;;;;;5055070;28;20140;-34
2023/08/28 06:53:03;;;;;;;6.35;2.88;;;14.30;99.90;;;;;;5060673;28;20159;-34
2023/08/28 06:55:30;;;;;;;5.97;2.40;;;14.50;99.90;;;;;;5057312;28;20044;-34
2023/08/28 06:57:56;;;;;;;3.53;2.25;;;14.60;99.90;;;;;;5058574;28;20074;-34
2023/08/28 07:00:21;;;;;;;3.88;2.45;;;14.70;99.90;;;;;;5060415;28;20048;-35
2023/08/28 07:02:47;;;;;;;5.13;2.85;;;14.80;99.90;;;;;;5056482;28;20541;-35
2023/08/28 07:05:13;;;;;;;4.95;2.88;;;14.90;99.90;;;;;;5057624;28;20051;-35
2023/08/28 07:07:39;;;;;;;4.15;2.42;;;15.00;99.90;;;;;;5053437;28;20061;-35
2023/08/28 07:10:06;;;;;;;5.03;2.30;;;15.10;99.90;;;;;;5045488;28;20048;-34
2023/08/28 07:12:33;;;;;;;7.00;3.30;;;15.20;99.90;;;;;;5075223;28;20059;-35
2023/08/28 07:15:13;;;;;;;4.90;2.90;;;15.30;99.90;;;;;;5058659;28;20048;-34
2023/08/28 07:17:39;;;;;;;4.75;2.38;;;15.30;99.90;;;;;;5047358;28;20052;-34
2023/08/28 07:20:06;;;;;;;3.92;2.50;;;15.40;99.90;;;;;;5040664;28;20063;-35
2023/08/28 07:22:32;;;;;;;5.20;2.67;;;15.50;99.90;;;;;;5043427;28;20544;-35
2023/08/28 07:24:57;;;;;;;3.92;1.88;;;15.60;99.90;;;;;;5047566;28;20056;-35
2023/08/28 07:27:23;;;;;;;2.85;1.75;;;15.70;99.90;;;;;;5063025;28;20409;-35
2023/08/28 07:29:49;;;;;;;4.25;2.40;;;15.70;99.90;;;;;;5066529;28;20712;-35
2023/08/28 07:32:14;;;;;;;3.22;1.50;;;15.80;99.90;;;;;;5054067;28;20061;-36
2023/08/28 07:34:40;;;;;;;4.22;2.25;;;15.80;99.90;;;;;;5062933;28;20078;-36
2023/08/28 07:37:06;;;;;;;4.65;2.67;;;15.90;99.90;;;;;;5065032;28;20628;-37
2023/08/28 07:39:31;;;;;;;5.38;1.95;;;16.00;99.90;;;;;;5064998;28;20081;-37
2023/08/28 07:41:57;;;;;;;2.80;1.67;;;16.10;99.90;;;;;;5062652;28;20052;-37
2023/08/28 07:44:23;;;;;;;2.45;1.40;;;16.20;99.90;;;;;;5067739;28;20048;-37
2023/08/28 07:46:49;;;;;;;2.63;1.15;;;16.30;99.90;;;;;;5064917;28;20045;-37
2023/08/28 07:49:15;;;;;;;3.35;1.40;;;16.30;99.90;;;;;;5069096;28;20425;-37
2023/08/28 07:51:41;;;;;;;2.08;0.95;;;16.40;99.90;;;;;;5068736;28;20091;-36
2023/08/28 07:54:06;;;;;;;1.48;0.93;;;16.50;99.90;;;;;;5065032;28;20409;-37
2023/08/28 07:56:32;;;;;;;1.10;0.60;;;16.60;99.90;;;;;;5063834;28;20056;-35
2023/08/28 07:58:58;;;;;;;1.95;0.80;;;16.60;99.90;;;;;;5063781;28;20071;-37
2023/08/28 08:01:23;;;;;;;2.47;0.80;;;16.70;99.90;;;;;;5060288;28;20974;-37
2023/08/28 08:03:49;;;;;;;1.67;0.80;;;16.80;99.90;;;;;;5067703;28;20484;-37
2023/08/28 08:06:16;;;;;;;2.80;1.30;;;16.90;99.90;;;;;;5065542;28;20565;-37
2023/08/28 08:08:45;;;;;;;2.30;1.05;;;17.00;99.90;;;;;;5060510;28;20056;-37
2023/08/28 08:11:11;;;;;;;2.25;0.70;;;17.10;99.90;;;;;;5056123;28;20390;-36
2023/08/28 08:13:37;;;;;;;2.17;0.65;;;17.30;99.90;;;;;;5061482;28;20405;-36
2023/08/28 08:16:05;;;;;;;2.60;0.70;;;17.40;99.90;;;;;;5058738;28;20040;-36
2023/08/28 08:18:31;;;;;;;1.27;0.43;;;17.40;99.90;;;;;;5051493;28;20095;-36
2023/08/28 08:20:57;;;;;;;1.63;0.60;;;17.40;99.90;;;;;;5055043;28;20055;-36
2023/08/28 08:23:23;;;;;;;2.22;0.50;;;17.40;99.90;;;;;;5063189;28;20151;-36
2023/08/28 08:25:54;;;;;;;2.35;0.50;;;17.30;99.90;;;;;;5068649;28;20520;-35
2023/08/28 08:28:20;;;;;;;2.28;0.50;;;17.30;99.90;;;;;;5059252;28;20450;-37
2023/08/28 08:30:46;;;;;;;1.00;0.32;;;17.30;99.90;;;;;;5062278;28;20135;-37
2023/08/28 08:33:12;;;;;;;1.67;0.47;;;17.40;99.90;;;;;;5066743;28;20074;-37
2023/08/28 08:35:38;;;;;;;1.98;0.50;;;17.50;99.90;;;;;;5067425;28;20051;-36
2023/08/28 08:38:04;;;;;;;1.10;0.45;;;17.60;99.90;;;;;;5066829;28;20048;-37
2023/08/28 08:40:32;;;;;;;1.85;0.50;;;17.70;99.90;;;;;;5059015;28;20052;-36
2023/08/28 08:42:57;;;;;;;3.10;0.50;;;17.80;99.90;;;;;;5057081;28;20157;-36
2023/08/28 08:45:30;;;;;;;1.85;0.30;;;17.90;99.90;;;;;;5061215;28;20503;-43
2023/08/28 08:48:00;;;;;;;1.55;0.40;;;18.10;99.90;;;;;;5065993;28;20051;-37
2023/08/28 08:50:27;;;;;;;1.70;0.50;;;18.10;99.90;;;;;;5068195;28;20498;-37
2023/08/28 08:52:58;;;;;;;1.95;0.30;;;18.20;99.90;;;;;;5061103;28;20135;-37
2023/08/28 08:55:54;;;;;;;1.08;0.30;;;18.20;99.90;;;;;;5045988;28;20123;-37
2023/08/28 08:58:21;;;;;;;0.90;0.30;;;18.40;99.90;;;;;;5038747;28;20057;-36
2023/08/28 09:00:49;;;;;;;2.22;0.40;;;18.40;99.90;;;;;;5048461;28;20503;-37
2023/08/28 09:03:17;;;;;;;2.17;0.22;;;18.40;99.90;;;;;;5057918;28;20053;-37
2023/08/28 09:05:44;;;;;;;2.20;0.30;;;18.40;99.90;;;;;;5061251;28;20055;-37
2023/08/28 09:08:12;;;;;;;1.52;0.40;;;18.50;99.90;;;;;;5058230;28;20098;-37
2023/08/28 09:10:38;;;;;;;2.15;0.20;;;18.50;99.90;;;;;;5059852;28;20053;-37
2023/08/28 09:13:04;;;;;;;2.35;0.30;;;18.60;99.90;;;;;;5054006;28;20055;-36
2023/08/28 09:15:30;;;;;;;0.68;0.20;;;18.60;99.90;;;;;;5055187;28;20064;-37
2023/08/28 09:17:59;;;;;;;0.90;0.25;;;18.70;99.90;;;;;;5062488;28;20059;-38
2023/08/28 09:20:25;;;;;;;0.60;0.30;;;18.70;99.90;;;;;;5050552;28;20074;-37
2023/08/28 09:22:53;;;;;;;0.55;0.25;;;18.80;99.90;;;;;;5068588;28;20109;-37
2023/08/28 09:25:20;;;;;;;1.77;0.40;;;18.80;99.90;;;;;;5052845;28;20525;-35
2023/08/28 09:27:52;;;;;;;1.40;0.30;;;18.90;99.90;;;;;;5054673;28;20056;-35
2023/08/28 09:30:38;;;;;;;0.88;0.30;;;19.00;99.90;;;;;;5060360;28;20048;-34
2023/08/28 09:33:06;;;;;;;1.10;0.30;;;19.10;99.90;;;;;;5055093;28;20048;-35
2023/08/28 09:35:39;;;;;;;1.55;0.30;;;19.20;99.90;;;;;;5048234;28;20053;-35
2023/08/28 09:38:05;;;;;;;2.60;0.30;;;19.30;99.90;;;;;;5057552;28;20568;-35
2023/08/28 09:40:36;;;;;;;1.10;0.30;;;19.50;99.90;;;;;;5061236;28;20109;-35
2023/08/28 09:43:12;;;;;;;1.90;0.20;;;19.60;99.90;;;;;;5063379;28;20110;-35
2023/08/28 09:45:39;;;;;;;1.92;0.30;;;19.80;99.90;;;;;;5065698;28;20305;-35
2023/08/28 09:48:06;;;;;;;1.95;0.20;;;20.00;99.90;;;;;;5059985;28;20052;-35
2023/08/28 09:50:34;;;;;;;1.02;0.35;;;20.10;99.90;;;;;;5056234;28;20060;-35
2023/08/28 09:53:10;;;;;;;1.00;0.30;;;20.10;99.90;;;;;;5045766;28;21472;-35
2023/08/28 09:55:45;;;;;;;1.63;0.30;;;20.20;99.90;;;;;;5078546;28;20505;-35
2023/08/28 09:58:11;;;;;;;1.08;0.20;;;20.10;99.90;;;;;;5050862;28;20056;-35
2023/08/28 10:00:39;;;;;;;1.08;0.30;;;20.10;99.90;;;;;;5058115;28;20097;-35
2023/08/28 10:03:07;;;;;;;1.52;0.50;;;20.00;99.90;;;;;;5050675;28;20091;-37
2023/08/28 10:05:37;;;;;;;2.58;0.35;;;20.00;99.90;;;;;;5057782;28;20551;-37
2023/08/28 10:08:07;;;;;;;1.15;0.30;;;19.90;99.90;;;;;;5042088;28;20060;-35
2023/08/28 10:10:37;;;;;;;1.25;0.28;;;19.80;99.90;;;;;;5060429;28;21213;-37
2023/08/28 10:13:05;;;;;;;0.32;0.20;;;19.70;99.90;;;;;;5061701;28;20044;-36
2023/08/28 10:15:33;;;;;;;1.17;0.20;;;19.60;99.90;;;;;;5042371;28;20048;-36
2023/08/28 10:18:04;;;;;;;1.45;0.22;;;19.50;99.90;;;;;;5052258;28;20060;-37
2023/08/28 10:20:30;;;;;;;0.63;0.30;;;19.50;99.90;;;;;;5065657;28;20127;-37
2023/08/28 10:22:57;;;;;;;1.02;0.38;;;19.40;99.90;;;;;;5053753;28;20052;-36
2023/08/28 10:25:25;;;;;;;1.05;0.28;;;19.30;99.90;;;;;;5057668;28;20058;-37
2023/08/28 10:27:52;;;;;;;0.85;0.30;;;19.20;99.90;;;;;;5054697;28;20491;-37
2023/08/28 10:30:21;;;;;;;0.10;0.10;;;19.20;99.90;;;;;;5052518;28;20056;-37
2023/08/28 10:32:49;;;;;;;0.68;0.20;;;19.10;99.90;;;;;;5062739;28;20140;-36
2023/08/28 10:35:16;;;;;;;0.98;0.20;;;19.10;99.90;;;;;;5056570;28;20057;-37
2023/08/28 10:37:43;;;;;;;2.08;0.30;;;19.00;99.90;;;;;;5078071;28;20066;-36
2023/08/28 10:40:11;;;;;;;1.85;0.32;;;19.00;99.90;;;;;;5061204;28;20048;-35
2023/08/28 10:42:37;;;;;;;1.15;0.20;;;19.00;99.90;;;;;;5048327;28;20075;-36
2023/08/28 10:45:03;;;;;;;0.43;0.20;;;19.00;99.90;;;;;;5055967;28;20055;-37
2023/08/28 10:47:29;;;;;;;1.65;0.50;;;19.00;99.90;;;;;;5055559;28;20040;-35
2023/08/28 10:49:55;;;;;;;0.50;0.20;;;19.10;99.90;;;;;;5053023;28;20040;-37
2023/08/28 10:52:22;;;;;;;4.32;0.30;;;19.10;99.90;;;;;;5059102;28;20048;-37
2023/08/28 10:54:48;;;;;;;1.67;0.28;;;19.20;99.90;;;;;;5057328;28;20064;-36
2023/08/28 10:57:25;;;;;;;0.70;0.20;;;19.30;99.90;;;;;;5056418;28;20210;-37
2023/08/28 10:59:51;;;;;;;0.85;0.32;;;19.50;99.90;;;;;;5060253;28;20044;-37
2023/08/28 11:02:18;;;;;;;0.20;0.10;;;19.60;99.90;;;;;;5057015;28;20076;-37
2023/08/28 11:04:44;;;;;;;1.17;0.20;;;19.80;99.90;;;;;;5059396;28;20386;-37
2023/08/28 11:07:30;;;;;;;0.47;0.20;;;19.90;99.90;;;;;;5059543;28;20037;-37
2023/08/28 11:10:25;;;;;;;0.22;0.20;;;20.20;99.90;;;;;;5058423;28;20056;-36
2023/08/28 11:12:56;;;;;;;2.80;0.28;;;20.50;99.90;;;;;;5065923;28;20513;-37
2023/08/28 11:15:49;;;;;;;0.40;0.20;;;20.70;99.90;;;;;;5048354;28;20052;-37
2023/08/28 11:18:18;;;;;;;0.30;0.10;;;21.00;99.90;;;;;;5049761;28;20072;-37
2023/08/28 11:20:47;;;;;;;0.85;0.20;;;21.20;99.90;;;;;;5062756;28;20481;-37
2023/08/28 11:23:42;;;;;;;2.83;0.40;;;21.40;99.90;;;;;;5064940;28;20052;-37
2023/08/28 11:26:16;;;;;;;1.17;0.28;;;21.60;99.90;;;;;;5059089;28;20135;-36
2023/08/28 11:28:47;;;;;;;2.58;0.40;;;21.60;99.90;;;;;;5059524;28;20468;-37
2023/08/28 11:31:14;;;;;;;2.05;0.30;;;21.50;99.90;;;;;;5064550;28;20056;-37
2023/08/28 11:33:42;;;;;;;1.38;0.30;;;21.30;99.90;;;;;;5066944;28;20052;-37
2023/08/28 11:36:16;;;;;;;1.33;0.30;;;21.20;99.90;;;;;;5053399;28;20060;-37
2023/08/28 11:38:43;;;;;;;0.93;0.20;;;20.90;99.90;;;;;;5064019;28;20590;-37
2023/08/28 11:41:10;;;;;;;1.63;0.22;;;20.80;99.90;;;;;;5064344;28;20036;-37
2023/08/28 11:43:40;;;;;;;0.93;0.20;;;20.70;99.90;;;;;;5062624;28;20509;-37
2023/08/28 11:46:06;;;;;;;0.55;0.30;;;20.60;99.90;;;;;;5050380;28;20057;-36
2023/08/28 11:48:44;;;;;;;0.93;0.20;;;20.60;99.90;;;;;;5060025;28;20502;-37
2023/08/28 11:51:11;;;;;;;2.15;0.20;;;20.40;99.90;;;;;;5043853;28;20049;-37
2023/08/28 11:53:40;;;;;;;1.90;0.20;;;20.40;99.90;;;;;;5065843;28;20060;-37
2023/08/28 11:56:06;;;;;;;0.70;0.20;;;20.40;99.90;;;;;;5052929;28;20052;-36
2023/08/28 11:58:33;;;;;;;1.77;0.30;;;20.40;99.90;;;;;;5059718;28;20503;-36
2023/08/28 12:01:07;;;;;;;0.95;0.20;;;20.40;99.90;;;;;;5054571;28;20076;-36
2023/08/28 12:03:36;;;;;;;0.77;0.30;;;20.40;99.90;;;;;;5070775;28;20136;-35
2023/08/28 12:06:09;;;;;;;1.95;0.30;;;20.50;99.90;;;;;;5057138;28;20053;-36
2023/08/28 12:08:37;;;;;;;3.13;0.30;;;20.60;99.90;;;;;;5059105;28;20052;-36
2023/08/28 12:11:07;;;;;;;0.95;0.30;;;20.70;99.90;;;;;;5051360;28;20052;-36
2023/08/28 12:13:34;;;;;;;0.40;0.20;;;20.70;99.90;;;;;;5064375;28;20056;-36
2023/08/28 12:16:08;;;;;;;0.57;0.20;;;20.80;99.90;;;;;;5066595;28;20502;-36
2023/08/28 12:18:44;;;;;;;0.77;0.30;;;20.90;99.90;;;;;;5061082;28;20465;-36
2023/08/28 12:21:10;;;;;;;1.23;0.17;;;20.90;99.90;;;;;;5066913;28;20198;-36
2023/08/28 12:23:46;;;;;;;0.63;0.30;;;21.00;99.90;;;;;;5051194;28;20144;-36
2023/08/28 12:26:12;;;;;;;1.45;0.38;;;21.10;99.90;;;;;;5063683;28;20050;-36
2023/08/28 12:28:37;;;;;;;2.10;0.50;;;21.10;99.90;;;;;;5059925;28;20052;-36
2023/08/28 12:31:03;;;;;;;0.68;0.20;;;21.10;99.90;;;;;;5062045;28;20526;-36
2023/08/28 12:33:29;;;;;;;1.23;0.25;;;21.10;99.90;;;;;;5059622;28;20071;-36
2023/08/28 12:35:54;;;;;;;1.08;0.30;;;21.10;99.90;;;;;;5062618;28;20041;-35
2023/08/28 12:38:20;;;;;;;1.00;0.30;;;21.50;99.90;;;;;;5065021;28;20110;-36
2023/08/28 12:40:50;;;;;;;0.70;0.30;;;21.70;99.90;;;;;;5063132;28;20052;-36
2023/08/28 12:43:16;;;;;;;0.70;0.40;;;21.80;99.90;;;;;;5064931;28;20053;-36
2023/08/28 12:45:42;;;;;;;0.60;0.30;;;22.00;99.90;;;;;;5065159;28;20409;-36
2023/08/28 12:48:08;;;;;;;2.70;0.30;;;22.10;99.90;;;;;;5069342;28;20048;-36